createdAt,value
2018-06-14T00:00:01.501Z,99.50
2018-06-14T00:02:27.446Z,99.10
2018-06-14T00:04:54.130Z,99.40
2018-06-14T00:07:20.103Z,99.40
2018-06-14T00:09:46.760Z,99.40
2018-06-14T00:12:12.687Z,99.40
2018-06-14T00:14:38.641Z,99.40
2018-06-14T00:17:04.559Z,99.50
2018-06-14T00:19:30.519Z,98.90
2018-06-14T00:21:57.177Z,98.60
2018-06-14T00:24:23.112Z,98.60
2018-06-14T00:26:49.054Z,98.60
2018-06-14T00:29:15.015Z,98.70
2018-06-14T00:31:40.945Z,99.20
2018-06-14T00:34:07.664Z,99.20
2018-06-14T00:36:33.592Z,99.20
2018-06-14T00:38:59.528Z,99.30
2018-06-14T00:41:26.217Z,99.20
2018-06-14T00:43:52.163Z,99.20
2018-06-14T00:46:18.108Z,99.70
2018-06-14T00:48:44.061Z,99.80
2018-06-14T00:51:10.023Z,99.60
2018-06-14T00:53:35.952Z,99.80
2018-06-14T00:56:01.853Z,99.80
2018-06-14T00:58:27.782Z,99.70
2018-06-14T01:00:53.735Z,99.80
2018-06-14T01:03:19.671Z,99.90
2018-06-14T01:05:46.321Z,99.90
2018-06-14T01:08:12.268Z,99.90
2018-06-14T01:10:38.181Z,99.80
2018-06-14T01:13:04.092Z,99.80
2018-06-14T01:15:30.029Z,99.60
2018-06-14T01:17:55.947Z,99.40
2018-06-14T01:20:21.902Z,99.30
2018-06-14T01:22:47.814Z,99.30
2018-06-14T01:25:13.768Z,99.30
2018-06-14T01:27:39.717Z,99.40
2018-06-14T01:30:05.635Z,99.40
2018-06-14T01:32:31.590Z,99.50
2018-06-14T01:34:57.541Z,99.80
2018-06-14T01:37:23.486Z,99.70
2018-06-14T01:39:50.154Z,99.80
2018-06-14T01:42:16.111Z,99.80
2018-06-14T01:44:42.049Z,99.90
2018-06-14T01:47:07.968Z,99.90
2018-06-14T01:49:33.914Z,99.90
2018-06-14T01:52:00.569Z,99.90
2018-06-14T01:54:26.515Z,99.90
2018-06-14T01:56:52.445Z,99.90
2018-06-14T01:59:18.384Z,99.90
2018-06-14T02:01:44.335Z,99.90
2018-06-14T02:04:11.089Z,99.90
2018-06-14T02:06:37.032Z,99.90
2018-06-14T02:09:02.956Z,99.90
2018-06-14T02:11:28.891Z,99.90
2018-06-14T02:13:54.855Z,99.90
2018-06-14T02:16:20.799Z,99.90
2018-06-14T02:18:47.478Z,99.90
2018-06-14T02:21:13.483Z,99.90
2018-06-14T02:23:39.424Z,99.90
2018-06-14T02:26:05.392Z,99.90
2018-06-14T02:28:32.052Z,99.90
2018-06-14T02:30:57.987Z,99.90
2018-06-14T02:33:23.925Z,99.90
2018-06-14T02:35:49.846Z,99.90
2018-06-14T02:38:15.785Z,99.90
2018-06-14T02:40:41.708Z,99.90
2018-06-14T02:43:07.855Z,99.90
2018-06-14T02:45:34.537Z,99.90
2018-06-14T02:48:00.466Z,99.90
2018-06-14T02:50:26.419Z,99.90
2018-06-14T02:52:52.338Z,99.90
2018-06-14T02:55:18.286Z,99.90
2018-06-14T02:57:44.961Z,99.90
2018-06-14T03:00:10.892Z,99.90
2018-06-14T03:02:36.886Z,99.90
2018-06-14T03:05:03.579Z,99.90
2018-06-14T03:07:29.508Z,99.90
2018-06-14T03:09:55.466Z,99.90
2018-06-14T03:12:22.163Z,99.90
2018-06-14T03:14:48.081Z,99.90
2018-06-14T03:17:14.012Z,99.90
2018-06-14T03:19:39.966Z,99.90
2018-06-14T03:22:06.619Z,99.90
2018-06-14T03:24:33.275Z,99.90
2018-06-14T03:26:59.214Z,99.90
2018-06-14T03:29:25.153Z,99.90
2018-06-14T03:31:51.098Z,99.90
2018-06-14T03:34:17.061Z,99.90
2018-06-14T03:36:43.017Z,99.90
2018-06-14T03:39:08.990Z,99.80
2018-06-14T03:41:34.928Z,99.70
2018-06-14T03:44:00.873Z,99.60
2018-06-14T03:46:26.863Z,99.70
2018-06-14T03:48:52.828Z,99.40
2018-06-14T03:51:18.775Z,99.50
2018-06-14T03:53:45.457Z,99.30
2018-06-14T03:56:11.396Z,99.30
2018-06-14T03:58:37.341Z,99.20
2018-06-14T04:01:03.278Z,99.10
2018-06-14T04:03:29.961Z,99.10
2018-06-14T04:05:55.889Z,99.00
2018-06-14T04:08:21.859Z,98.90
2018-06-14T04:10:47.778Z,98.70
2018-06-14T04:13:13.720Z,98.90
2018-06-14T04:15:40.401Z,98.80
2018-06-14T04:18:06.356Z,98.80
2018-06-14T04:20:32.300Z,98.60
2018-06-14T04:22:58.984Z,98.70
2018-06-14T04:25:24.911Z,98.60
2018-06-14T04:27:50.846Z,98.70
2018-06-14T04:30:16.864Z,98.70
2018-06-14T04:32:42.769Z,98.40
2018-06-14T04:35:08.739Z,98.60
2018-06-14T04:37:34.659Z,98.40
2018-06-14T04:40:00.579Z,98.20
2018-06-14T04:42:26.517Z,98.20
2018-06-14T04:44:53.171Z,97.30
2018-06-14T04:47:19.135Z,97.30
2018-06-14T04:49:45.082Z,97.30
2018-06-14T04:52:11.780Z,96.70
2018-06-14T04:54:37.715Z,96.70
2018-06-14T04:57:03.694Z,96.70
2018-06-14T04:59:30.355Z,96.50
2018-06-14T05:01:56.314Z,96.50
2018-06-14T05:04:22.241Z,96.10
2018-06-14T05:06:48.186Z,95.90
2018-06-14T05:09:14.867Z,95.70
2018-06-14T05:11:40.783Z,95.60
2018-06-14T05:14:06.729Z,95.60
2018-06-14T05:16:32.669Z,95.30
2018-06-14T05:18:58.625Z,95.40
2018-06-14T05:21:24.551Z,95.10
2018-06-14T05:23:51.353Z,95.40
2018-06-14T05:26:17.305Z,95.40
2018-06-14T05:28:43.968Z,95.40
2018-06-14T05:31:09.952Z,95.40
2018-06-14T05:33:36.644Z,94.70
2018-06-14T05:36:02.605Z,94.70
2018-06-14T05:38:28.554Z,94.60
2018-06-14T05:40:55.247Z,94.60
2018-06-14T05:43:21.142Z,94.60
2018-06-14T05:45:47.094Z,94.50
2018-06-14T05:48:13.028Z,93.90
2018-06-14T05:50:38.982Z,93.60
2018-06-14T05:53:04.917Z,93.40
2018-06-14T05:55:30.866Z,93.50
2018-06-14T05:57:56.810Z,93.20
2018-06-14T06:00:22.734Z,92.60
2018-06-14T06:02:48.739Z,92.80
2018-06-14T06:05:14.666Z,92.90
2018-06-14T06:07:40.633Z,92.60
2018-06-14T06:10:07.299Z,92.40
2018-06-14T06:12:33.211Z,92.40
2018-06-14T06:14:59.157Z,91.00
2018-06-14T06:17:25.085Z,90.80
2018-06-14T06:19:51.104Z,90.20
2018-06-14T06:22:16.986Z,90.80
2018-06-14T06:24:43.692Z,89.70
2018-06-14T06:27:09.617Z,89.60
2018-06-14T06:29:35.542Z,90.10
2018-06-14T06:32:01.485Z,88.40
2018-06-14T06:34:28.175Z,85.40
2018-06-14T06:36:54.126Z,85.30
2018-06-14T06:39:20.070Z,81.90
2018-06-14T06:41:46.050Z,78.50
2018-06-14T06:44:11.976Z,73.90
2018-06-14T06:46:37.916Z,71.40
2018-06-14T06:49:03.876Z,68.10
2018-06-14T06:51:29.812Z,64.90
2018-06-14T06:53:55.747Z,61.70
2018-06-14T06:56:21.681Z,60.00
2018-06-14T06:58:47.634Z,59.90
2018-06-14T07:01:14.311Z,57.60
2018-06-14T07:03:40.282Z,57.60
2018-06-14T07:06:06.262Z,56.80
2018-06-14T07:08:32.191Z,55.80
2018-06-14T07:10:58.156Z,54.80
2018-06-14T07:13:24.834Z,52.90
2018-06-14T07:15:50.802Z,52.90
2018-06-14T07:18:16.728Z,52.80
2018-06-14T07:20:42.687Z,52.60
2018-06-14T07:23:08.625Z,52.10
2018-06-14T07:25:34.592Z,50.80
2018-06-14T07:28:00.545Z,48.70
2018-06-14T07:30:27.208Z,48.00
2018-06-14T07:32:53.159Z,48.00
2018-06-14T07:35:19.107Z,47.60
2018-06-14T07:37:45.058Z,46.10
2018-06-14T07:40:10.997Z,48.00
2018-06-14T07:42:36.937Z,48.40
2018-06-14T07:45:02.864Z,47.30
2018-06-14T07:47:28.846Z,47.10
2018-06-14T07:49:54.776Z,46.30
2018-06-14T07:52:20.729Z,45.10
2018-06-14T07:54:46.661Z,45.90
2018-06-14T07:57:12.584Z,44.90
2018-06-14T07:59:38.557Z,44.30
2018-06-14T08:02:04.511Z,44.30
2018-06-14T08:04:30.489Z,44.00
2018-06-14T08:06:57.154Z,43.80
2018-06-14T08:09:23.070Z,43.80
2018-06-14T08:11:49.043Z,43.90
2018-06-14T08:14:14.984Z,43.60
2018-06-14T08:16:41.700Z,40.20
2018-06-14T08:19:07.629Z,40.10
2018-06-14T08:21:33.585Z,39.00
2018-06-14T08:23:59.525Z,40.10
2018-06-14T08:26:25.492Z,40.80
2018-06-14T08:28:51.438Z,40.40
2018-06-14T08:31:18.103Z,42.60
2018-06-14T08:33:44.076Z,42.50
2018-06-14T08:36:10.023Z,44.90
2018-06-14T08:38:36.713Z,42.70
2018-06-14T08:41:02.636Z,42.70
2018-06-14T08:43:28.583Z,41.90
2018-06-14T08:45:54.534Z,40.40
2018-06-14T08:48:21.222Z,40.80
2018-06-14T08:50:47.147Z,40.70
2018-06-14T08:53:13.084Z,41.50
2018-06-14T08:55:39.053Z,42.60
2018-06-14T08:58:04.971Z,43.30
2018-06-14T09:00:30.934Z,41.00
2018-06-14T09:02:56.839Z,39.60
2018-06-14T09:05:22.794Z,39.50
2018-06-14T09:07:48.729Z,41.40
2018-06-14T09:10:14.652Z,37.70
2018-06-14T09:12:41.352Z,38.20
2018-06-14T09:15:08.005Z,39.40
2018-06-14T09:17:33.976Z,39.10
2018-06-14T09:20:00.641Z,38.30
2018-06-14T09:22:26.608Z,38.20
2018-06-14T09:24:52.553Z,40.80
2018-06-14T09:27:19.215Z,38.50
2018-06-14T09:29:45.186Z,38.40
2018-06-14T09:32:11.104Z,41.00
2018-06-14T09:34:37.081Z,39.60
2018-06-14T09:37:03.004Z,40.40
2018-06-14T09:39:28.976Z,40.40
2018-06-14T09:41:54.912Z,40.70
2018-06-14T09:44:20.834Z,37.80
2018-06-14T09:46:47.538Z,36.70
2018-06-14T09:49:13.491Z,36.60
2018-06-14T09:51:40.190Z,39.30
2018-06-14T09:54:06.124Z,38.70
2018-06-14T09:56:32.845Z,40.10
2018-06-14T09:58:58.773Z,40.20
2018-06-14T10:01:24.694Z,41.10
2018-06-14T10:03:50.653Z,41.30
2018-06-14T10:06:16.566Z,41.30
2018-06-14T10:08:42.506Z,42.80
2018-06-14T10:11:08.437Z,41.60
2018-06-14T10:13:35.128Z,43.20
2018-06-14T10:16:01.043Z,43.00
2018-06-14T10:18:26.957Z,41.90
2018-06-14T10:20:52.901Z,41.70
2018-06-14T10:23:18.820Z,43.00
2018-06-14T10:25:44.774Z,42.40
2018-06-14T10:28:10.720Z,42.40
2018-06-14T10:30:36.669Z,43.80
2018-06-14T10:33:02.609Z,43.10
2018-06-14T10:35:28.574Z,44.60
2018-06-14T10:37:55.235Z,44.60
2018-06-14T10:40:21.195Z,44.60
2018-06-14T10:42:47.142Z,45.40
2018-06-14T10:45:13.809Z,46.20
2018-06-14T10:47:39.749Z,46.20
2018-06-14T10:50:05.722Z,45.30
2018-06-14T10:52:31.681Z,44.80
2018-06-14T10:54:57.615Z,45.70
2018-06-14T10:57:23.558Z,46.00
2018-06-14T10:59:49.487Z,45.70
2018-06-14T11:02:15.402Z,45.70
2018-06-14T11:04:41.360Z,46.60
2018-06-14T11:07:07.275Z,46.30
2018-06-14T11:09:33.220Z,45.60
2018-06-14T11:11:59.152Z,46.70
2018-06-14T11:14:25.108Z,47.50
2018-06-14T11:16:51.048Z,47.60
2018-06-14T11:19:16.993Z,46.70
2018-06-14T11:21:43.678Z,47.70
2018-06-14T11:24:09.616Z,47.60
2018-06-14T11:26:35.559Z,46.80
2018-06-14T11:29:01.511Z,48.70
2018-06-14T11:31:27.482Z,48.60
2018-06-14T11:33:53.416Z,47.70
2018-06-14T11:36:19.347Z,48.50
2018-06-14T11:38:45.334Z,48.20
2018-06-14T11:41:11.303Z,48.70
2018-06-14T11:43:38.006Z,47.80
2018-06-14T11:46:03.954Z,47.70
2018-06-14T11:48:29.929Z,46.20
2018-06-14T11:50:55.860Z,45.80
2018-06-14T11:53:21.784Z,47.30
2018-06-14T11:55:47.744Z,47.50
2018-06-14T11:58:13.683Z,48.50
2018-06-14T12:00:40.380Z,46.60
2018-06-14T12:03:06.292Z,46.50
2018-06-14T12:05:32.229Z,47.10
2018-06-14T12:07:58.158Z,48.10
2018-06-14T12:10:24.140Z,48.00
2018-06-14T12:12:50.061Z,49.40
2018-06-14T12:15:16.066Z,49.20
2018-06-14T12:17:41.984Z,52.40
2018-06-14T12:20:08.657Z,51.80
2018-06-14T12:22:34.630Z,51.80
2018-06-14T12:25:01.348Z,51.50
2018-06-14T12:27:27.299Z,51.40
2018-06-14T12:29:53.984Z,51.60
2018-06-14T12:32:19.956Z,51.70
2018-06-14T12:34:45.902Z,52.90
2018-06-14T12:37:11.843Z,52.90
2018-06-14T12:39:37.788Z,53.60
2018-06-14T12:42:03.706Z,55.20
2018-06-14T12:44:29.662Z,54.40
2018-06-14T12:46:55.579Z,55.70
2018-06-14T12:49:21.557Z,56.50
2018-06-14T12:51:47.491Z,57.10
2018-06-14T12:54:13.392Z,57.30
2018-06-14T12:56:39.352Z,58.90
2018-06-14T12:59:05.280Z,58.20
2018-06-14T13:01:31.250Z,61.00
2018-06-14T13:03:57.183Z,58.70
2018-06-14T13:06:23.139Z,61.10
2018-06-14T13:08:49.089Z,64.20
2018-06-14T13:11:15.861Z,66.60
2018-06-14T13:13:41.767Z,66.50
2018-06-14T13:16:07.724Z,66.00
2018-06-14T13:18:33.660Z,69.90
2018-06-14T13:20:59.604Z,72.10
2018-06-14T13:23:25.599Z,72.10
2018-06-14T13:25:51.541Z,75.10
2018-06-14T13:28:17.486Z,75.10
2018-06-14T13:30:44.200Z,75.50
2018-06-14T13:33:10.135Z,75.30
2018-06-14T13:35:36.841Z,79.00
2018-06-14T13:38:02.769Z,78.90
2018-06-14T13:40:28.755Z,81.40
2018-06-14T13:42:54.677Z,79.80
2018-06-14T13:45:20.588Z,80.20
2018-06-14T13:47:47.307Z,81.60
2018-06-14T13:50:13.234Z,81.60
2018-06-14T13:52:39.946Z,84.00
2018-06-14T13:55:05.880Z,83.90
2018-06-14T13:57:31.821Z,82.20
2018-06-14T13:59:58.501Z,86.60
2018-06-14T14:02:24.432Z,86.70
2018-06-14T14:04:50.414Z,87.30
2018-06-14T14:07:16.358Z,87.20
2018-06-14T14:09:42.369Z,88.60
2018-06-14T14:12:09.147Z,91.10
2018-06-14T14:14:35.099Z,91.20
2018-06-14T14:17:01.797Z,91.00
2018-06-14T14:19:27.711Z,90.90
2018-06-14T14:21:53.680Z,91.60
2018-06-14T14:24:19.618Z,92.00
2018-06-14T14:26:46.290Z,90.90
2018-06-14T14:29:12.251Z,90.90
2018-06-14T14:31:38.178Z,91.50
2018-06-14T14:34:04.126Z,92.80
2018-06-14T14:36:30.812Z,92.90
2018-06-14T14:38:56.795Z,92.60
2018-06-14T14:41:23.474Z,93.20
2018-06-14T14:43:49.429Z,93.20
2018-06-14T14:46:15.386Z,93.60
2018-06-14T14:48:41.320Z,92.80
2018-06-14T14:51:07.255Z,93.10
2018-06-14T14:53:33.217Z,93.60
2018-06-14T14:55:59.173Z,93.60
2018-06-14T14:58:25.847Z,93.20
2018-06-14T15:00:51.842Z,93.20
2018-06-14T15:03:17.750Z,93.90
2018-06-14T15:05:44.434Z,94.70
2018-06-14T15:08:10.371Z,94.70
2018-06-14T15:10:36.278Z,93.50
2018-06-14T15:13:02.216Z,93.70
2018-06-14T15:15:28.131Z,93.70
2018-06-14T15:17:54.115Z,92.70
2018-06-14T15:20:20.036Z,92.40
2018-06-14T15:22:45.974Z,93.60
2018-06-14T15:25:18.969Z,93.20
2018-06-14T15:27:44.921Z,94.20
2018-06-14T15:30:10.906Z,94.00
2018-06-14T15:32:36.825Z,93.10
2018-06-14T15:35:02.765Z,93.10
2018-06-14T15:37:28.687Z,93.70
2018-06-14T15:39:54.615Z,92.90
2018-06-14T15:42:20.533Z,92.20
2018-06-14T15:44:46.502Z,91.50
2018-06-14T15:47:13.166Z,92.30
2018-06-14T15:49:39.096Z,92.30
2018-06-14T15:52:05.059Z,91.50
2018-06-14T15:54:30.996Z,91.70
2018-06-14T15:56:57.677Z,90.60
2018-06-14T15:59:23.616Z,90.60
2018-06-14T16:01:49.568Z,91.30
2018-06-14T16:04:16.265Z,90.50
2018-06-14T16:06:42.253Z,90.40
2018-06-14T16:09:08.910Z,91.40
2018-06-14T16:11:34.829Z,91.30
2018-06-14T16:14:00.790Z,90.60
2018-06-14T16:16:26.743Z,91.10
2018-06-14T16:18:52.704Z,89.80
2018-06-14T16:21:18.691Z,90.30
2018-06-14T16:23:44.612Z,90.40
2018-06-14T16:26:10.533Z,88.60
2018-06-14T16:28:37.204Z,89.70
2018-06-14T16:31:03.157Z,89.70
2018-06-14T16:33:29.938Z,89.80
2018-06-14T16:35:56.631Z,90.40
2018-06-14T16:38:23.328Z,91.00
2018-06-14T16:40:50.007Z,92.20
2018-06-14T16:43:16.684Z,92.70
2018-06-14T16:45:42.694Z,92.70
2018-06-14T16:48:08.603Z,92.60
2018-06-14T16:50:34.534Z,93.40
2018-06-14T16:53:00.531Z,93.30
2018-06-14T16:55:26.553Z,93.60
2018-06-14T16:57:52.521Z,94.00
2018-06-14T17:00:18.448Z,95.00
2018-06-14T17:02:45.152Z,95.40
2018-06-14T17:05:11.145Z,95.40
2018-06-14T17:07:37.839Z,95.80
2018-06-14T17:10:03.762Z,95.70
2018-06-14T17:12:29.701Z,95.80
2018-06-14T17:14:56.440Z,95.50
2018-06-14T17:17:22.424Z,95.50
2018-06-14T17:19:48.369Z,95.20
2018-06-14T17:22:14.323Z,95.30
2018-06-14T17:24:40.278Z,95.80
2018-06-14T17:27:06.210Z,95.70
2018-06-14T17:29:32.187Z,95.30
2018-06-14T17:31:58.875Z,95.70
2018-06-14T17:34:24.799Z,95.70
2018-06-14T17:36:50.752Z,96.30
2018-06-14T17:39:17.428Z,96.70
2018-06-14T17:41:43.382Z,96.70
2018-06-14T17:44:09.333Z,97.90
2018-06-14T17:46:35.303Z,97.90
2018-06-14T17:49:01.225Z,98.30
2018-06-14T17:51:27.169Z,98.60
2018-06-14T17:53:53.128Z,98.70
2018-06-14T17:56:19.807Z,99.00
2018-06-14T17:58:45.759Z,99.00
2018-06-14T18:01:11.680Z,99.60
2018-06-14T18:03:37.649Z,99.80
2018-06-14T18:06:04.869Z,99.90
2018-06-14T18:08:30.287Z,99.90
2018-06-14T18:10:56.237Z,99.90
2018-06-14T18:13:22.167Z,99.90
2018-06-14T18:15:48.105Z,99.90
2018-06-14T18:18:14.069Z,99.90
2018-06-14T18:20:40.041Z,99.90
2018-06-14T18:23:06.057Z,99.90
2018-06-14T18:25:32.764Z,99.90
2018-06-14T18:27:58.699Z,99.90
2018-06-14T18:30:25.374Z,99.90
2018-06-14T18:32:51.357Z,99.90
2018-06-14T18:35:17.348Z,99.90
2018-06-14T18:37:43.302Z,99.90
2018-06-14T18:40:09.966Z,99.90
2018-06-14T18:42:35.938Z,99.90
2018-06-14T18:45:01.878Z,99.90
2018-06-14T18:47:27.796Z,99.90
2018-06-14T18:49:53.733Z,99.90
2018-06-14T18:52:20.401Z,99.90
2018-06-14T18:54:46.348Z,99.90
2018-06-14T18:57:12.274Z,99.90
2018-06-14T18:59:38.250Z,99.90
2018-06-14T19:02:04.923Z,99.90
2018-06-14T19:04:30.877Z,99.90
2018-06-14T19:06:56.849Z,99.90
2018-06-14T19:09:22.786Z,99.90
2018-06-14T19:11:48.728Z,99.90
2018-06-14T19:14:15.390Z,99.90
2018-06-14T19:16:42.077Z,99.90
2018-06-14T19:19:07.996Z,99.90
2018-06-14T19:21:33.958Z,99.90
2018-06-14T19:23:59.891Z,99.90
2018-06-14T19:26:25.967Z,99.90
2018-06-14T19:28:51.821Z,99.90
2018-06-14T19:31:17.766Z,99.90
2018-06-14T19:33:44.437Z,99.90
2018-06-14T19:36:10.366Z,99.90
2018-06-14T19:38:36.332Z,99.90
2018-06-14T19:41:02.292Z,99.90
2018-06-14T19:43:28.218Z,99.90
2018-06-14T19:45:54.161Z,99.90
2018-06-14T19:48:20.096Z,99.90
2018-06-14T19:50:46.032Z,99.90
2018-06-14T19:53:11.955Z,99.90
2018-06-14T19:55:37.942Z,99.90
2018-06-14T19:58:03.895Z,99.90
2018-06-14T20:00:29.838Z,99.90
2018-06-14T20:02:55.795Z,99.90
2018-06-14T20:05:21.716Z,99.90
2018-06-14T20:07:47.657Z,99.90
2018-06-14T20:10:13.596Z,99.90
2018-06-14T20:12:39.545Z,99.90
2018-06-14T20:15:05.464Z,99.90
2018-06-14T20:17:31.380Z,99.90
2018-06-14T20:19:57.317Z,99.90
2018-06-14T20:22:23.993Z,99.90
2018-06-14T20:24:49.919Z,99.90
2018-06-14T20:27:15.849Z,99.90
2018-06-14T20:29:41.808Z,99.90
2018-06-14T20:32:08.502Z,99.90
2018-06-14T20:34:34.446Z,99.90
2018-06-14T20:37:00.405Z,99.90
2018-06-14T20:39:26.336Z,99.90
2018-06-14T20:41:53.056Z,99.90
2018-06-14T20:44:18.961Z,99.90
2018-06-14T20:46:44.903Z,99.90
2018-06-14T20:49:10.818Z,99.90
2018-06-14T20:51:36.759Z,99.90
2018-06-14T20:54:03.461Z,99.90
2018-06-14T20:56:30.131Z,99.90
2018-06-14T20:58:56.114Z,99.90
2018-06-14T21:01:22.079Z,99.90
2018-06-14T21:03:48.775Z,99.90
2018-06-14T21:06:14.715Z,99.90
2018-06-14T21:08:40.665Z,99.90
2018-06-14T21:11:07.339Z,99.90
2018-06-14T21:13:33.272Z,99.90
2018-06-14T21:15:59.244Z,99.90
2018-06-14T21:18:25.181Z,99.90
2018-06-14T21:20:51.927Z,99.90
2018-06-14T21:23:17.842Z,99.90
2018-06-14T21:25:44.513Z,99.90
2018-06-14T21:28:10.444Z,99.90
2018-06-14T21:30:36.368Z,99.90
2018-06-14T21:33:02.350Z,99.90
2018-06-14T21:35:28.286Z,99.90
2018-06-14T21:37:54.243Z,99.90
2018-06-14T21:40:20.206Z,99.90
2018-06-14T21:42:46.892Z,99.90
2018-06-14T21:45:12.838Z,99.90
2018-06-14T21:47:38.772Z,99.90
2018-06-14T21:50:04.711Z,99.90
2018-06-14T21:52:31.384Z,99.90
2018-06-14T21:54:57.349Z,99.90
2018-06-14T21:57:23.288Z,99.90
2018-06-14T21:59:49.966Z,99.90
2018-06-14T22:02:15.907Z,99.90
2018-06-14T22:04:41.863Z,99.90
2018-06-14T22:07:07.795Z,99.90
2018-06-14T22:09:34.481Z,99.90
2018-06-14T22:12:00.450Z,99.90
2018-06-14T22:14:27.135Z,99.90
2018-06-14T22:16:53.083Z,99.90
2018-06-14T22:19:19.026Z,99.90
2018-06-14T22:21:44.993Z,99.90
2018-06-14T22:24:10.910Z,99.90
2018-06-14T22:26:36.861Z,99.90
2018-06-14T22:29:02.823Z,99.90
2018-06-14T22:31:28.743Z,99.90
2018-06-14T22:33:54.693Z,99.90
2018-06-14T22:36:21.348Z,99.90
2018-06-14T22:38:47.304Z,99.90
2018-06-14T22:41:13.239Z,99.90
2018-06-14T22:43:39.195Z,99.90
2018-06-14T22:46:05.128Z,99.90
2018-06-14T22:48:31.061Z,99.90
2018-06-14T22:50:57.004Z,99.90
2018-06-14T22:53:22.940Z,99.90
2018-06-14T22:55:48.901Z,99.90
2018-06-14T22:58:15.579Z,99.90
2018-06-14T23:00:41.495Z,99.90
2018-06-14T23:03:07.453Z,99.90
2018-06-14T23:05:33.388Z,99.90
2018-06-14T23:07:59.358Z,99.90
2018-06-14T23:10:25.309Z,99.90
2018-06-14T23:12:51.248Z,99.90
2018-06-14T23:15:17.173Z,99.90
2018-06-14T23:17:43.886Z,99.90
2018-06-14T23:20:09.829Z,99.90
2018-06-14T23:22:35.767Z,99.90
2018-06-14T23:25:02.457Z,99.90
2018-06-14T23:27:29.124Z,99.90
2018-06-14T23:29:55.092Z,99.90
2018-06-14T23:32:21.041Z,99.90
2018-06-14T23:34:46.992Z,99.90
2018-06-14T23:37:12.923Z,99.90
2018-06-14T23:39:38.860Z,99.90
2018-06-14T23:42:05.577Z,99.90
2018-06-14T23:44:31.498Z,99.90
2018-06-14T23:46:57.475Z,99.90
2018-06-14T23:49:23.411Z,99.90
2018-06-14T23:51:49.357Z,99.90
2018-06-14T23:54:15.284Z,99.90
2018-06-14T23:56:41.232Z,99.90
2018-06-14T23:59:07.892Z,99.90
